Time;durP1;ratioP1;P1;durP2;ratioP2;P2;SDS_P1;SDS_P2;PMS_P1;PMS_P2;Temp;Humidity;BMP_temperature;BMP_pressure;BME280_temperature;BME280_humidity;BME280_pressure;Samples;Min_cycle;Max_cycle;Signal;HPM_P1;HPM_P2
2023/06/26 00:02:21;;;;;;;2.72;1.75;;;25.20;64.60;;;;;;5011402;28;20124;-65
2023/06/26 00:04:47;;;;;;;2.17;1.88;;;25.20;64.70;;;;;;5029029;28;20037;-64
2023/06/26 00:07:12;;;;;;;2.10;1.90;;;25.10;64.70;;;;;;5026657;28;20037;-65
2023/06/26 00:09:41;;;;;;;2.10;1.90;;;25.10;64.90;;;;;;5029285;28;20037;-65
2023/06/26 00:12:07;;;;;;;2.25;1.88;;;25.10;65.10;;;;;;5029092;28;20385;-64
2023/06/26 00:14:32;;;;;;;2.65;2.05;;;24.90;65.20;;;;;;5013877;28;20032;-64
2023/06/26 00:16:58;;;;;;;3.55;2.10;;;24.90;65.20;;;;;;5013921;28;20540;-65
2023/06/26 00:19:24;;;;;;;2.67;2.30;;;24.90;65.40;;;;;;5032648;28;20104;-64
2023/06/26 00:21:49;;;;;;;2.05;1.70;;;24.90;65.50;;;;;;5032199;28;20177;-63
2023/06/26 00:24:16;;;;;;;2.92;2.60;;;24.80;65.50;;;;;;5031915;28;20069;-63
2023/06/26 00:26:41;;;;;;;2.67;1.88;;;24.80;65.50;;;;;;5032027;28;20124;-64
2023/06/26 00:29:07;;;;;;;2.67;1.70;;;24.80;65.60;;;;;;5032603;28;20545;-64
2023/06/26 00:31:34;;;;;;;2.08;1.88;;;24.80;65.60;;;;;;5026016;28;20405;-64
2023/06/26 00:34:00;;;;;;;2.33;1.83;;;24.80;65.80;;;;;;5012241;28;20022;-64
2023/06/26 00:36:26;;;;;;;1.77;1.67;;;24.70;65.80;;;;;;5031795;28;20508;-64
2023/06/26 00:38:52;;;;;;;1.85;1.75;;;24.70;65.80;;;;;;5032338;28;20095;-64
2023/06/26 00:41:19;;;;;;;2.63;2.00;;;24.70;65.90;;;;;;5014225;28;20022;-63
2023/06/26 00:43:45;;;;;;;3.15;2.22;;;24.60;65.80;;;;;;5010401;28;20018;-64
2023/06/26 00:46:13;;;;;;;2.05;1.92;;;24.60;66.00;;;;;;5031744;28;20542;-64
2023/06/26 00:48:42;;;;;;;2.30;2.03;;;24.60;66.00;;;;;;5031602;28;20033;-64
2023/06/26 00:51:08;;;;;;;2.35;1.73;;;24.60;66.20;;;;;;5031874;28;20396;-64
2023/06/26 00:53:34;;;;;;;2.53;1.88;;;24.50;66.20;;;;;;5031476;28;20515;-63
2023/06/26 00:56:02;;;;;;;2.58;2.20;;;24.50;66.20;;;;;;5031975;28;20040;-65
2023/06/26 00:58:28;;;;;;;2.67;2.45;;;24.50;66.20;;;;;;5028301;28;20018;-65
2023/06/26 01:00:54;;;;;;;2.25;1.60;;;24.40;66.40;;;;;;5011257;28;20033;-65
2023/06/26 01:03:22;;;;;;;3.08;2.20;;;24.40;66.40;;;;;;5031158;28;20025;-65
2023/06/26 01:05:49;;;;;;;2.13;1.92;;;24.40;66.50;;;;;;5031099;28;20037;-65
2023/06/26 01:08:16;;;;;;;2.83;2.30;;;24.40;66.60;;;;;;5031696;28;20578;-65
2023/06/26 01:10:42;;;;;;;2.58;2.10;;;24.40;66.70;;;;;;5031277;28;20392;-66
2023/06/26 01:13:08;;;;;;;2.55;1.70;;;24.30;66.80;;;;;;5013870;28;20030;-65
2023/06/26 01:15:34;;;;;;;3.10;2.30;;;24.20;67.00;;;;;;5031839;28;20336;-65
2023/06/26 01:18:03;;;;;;;2.63;2.22;;;24.20;67.10;;;;;;5030733;28;20049;-65
2023/06/26 01:20:37;;;;;;;4.60;2.95;;;24.20;67.10;;;;;;5014318;28;20026;-64
2023/06/26 01:23:02;;;;;;;2.58;2.00;;;24.20;67.10;;;;;;5031141;28;20040;-64
2023/06/26 01:25:47;;;;;;;3.03;1.98;;;24.20;67.10;;;;;;5030084;28;20029;-64
2023/06/26 01:28:14;;;;;;;2.53;2.13;;;24.20;67.10;;;;;;5030593;28;20030;-64
2023/06/26 01:30:42;;;;;;;3.88;2.45;;;24.10;67.20;;;;;;5030722;28;20865;-64
2023/06/26 01:33:08;;;;;;;1.92;1.83;;;24.10;67.30;;;;;;5030119;28;20511;-65
2023/06/26 01:35:35;;;;;;;2.92;2.25;;;24.00;67.30;;;;;;5005007;28;20557;-64
2023/06/26 01:38:17;;;;;;;2.35;2.15;;;24.00;67.50;;;;;;5030949;28;20488;-65
2023/06/26 01:40:46;;;;;;;2.90;2.08;;;24.00;67.40;;;;;;5024480;28;20058;-64
2023/06/26 01:44:08;;;;;;;2.78;2.03;;;24.00;67.70;;;;;;5027101;28;20038;-65
2023/06/26 01:46:55;;;;;;;4.00;2.10;;;24.00;67.60;;;;;;4936501;29;20444;-65
2023/06/26 01:49:40;;;;;;;3.13;2.00;;;24.00;67.70;;;;;;4924062;29;20042;-64
2023/06/26 01:52:40;;;;;;;2.50;2.03;;;23.90;67.80;;;;;;5004939;28;20393;-63
2023/06/26 01:55:21;;;;;;;2.63;2.30;;;24.00;67.80;;;;;;5024407;28;20030;-63
2023/06/26 01:57:48;;;;;;;2.93;2.00;;;24.00;67.80;;;;;;5029673;28;20488;-63
2023/06/26 02:00:19;;;;;;;2.85;2.35;;;24.00;67.60;;;;;;5029886;28;20050;-64
2023/06/26 02:02:45;;;;;;;3.60;2.38;;;24.10;67.50;;;;;;5027468;28;20476;-63
2023/06/26 02:05:12;;;;;;;2.22;2.03;;;24.20;67.30;;;;;;5030209;28;20080;-64
2023/06/26 02:07:38;;;;;;;3.65;2.72;;;24.30;67.00;;;;;;5030489;28;20036;-64
2023/06/26 02:10:04;;;;;;;4.22;2.90;;;24.30;66.60;;;;;;5030433;28;20029;-64
2023/06/26 02:12:29;;;;;;;2.85;2.10;;;24.40;66.30;;;;;;5012468;28;20409;-65
2023/06/26 02:14:55;;;;;;;4.57;2.75;;;24.50;66.00;;;;;;5011971;28;20037;-65
2023/06/26 02:17:21;;;;;;;3.08;2.10;;;24.50;65.40;;;;;;5029874;28;20029;-63
2023/06/26 02:19:49;;;;;;;2.53;2.13;;;24.60;65.30;;;;;;5012033;28;20022;-64
2023/06/26 02:22:15;;;;;;;2.95;1.90;;;24.70;65.10;;;;;;5011981;28;20033;-64
2023/06/26 02:24:42;;;;;;;2.75;2.03;;;24.60;64.30;;;;;;5012341;28;20064;-64
2023/06/26 02:27:08;;;;;;;2.78;2.15;;;24.60;63.80;;;;;;5030417;28;20033;-64
2023/06/26 02:29:34;;;;;;;1.98;1.60;;;24.60;63.80;;;;;;5012576;28;20025;-64
2023/06/26 02:31:59;;;;;;;3.95;2.10;;;24.60;64.40;;;;;;5029704;28;20137;-64
2023/06/26 02:34:25;;;;;;;1.83;1.40;;;24.60;63.50;;;;;;5029976;28;20045;-64
2023/06/26 02:36:54;;;;;;;2.22;1.67;;;24.50;63.40;;;;;;5029454;28;20025;-64
2023/06/26 02:39:20;;;;;;;3.10;1.80;;;24.50;63.20;;;;;;5012559;28;20026;-64
2023/06/26 02:41:46;;;;;;;2.60;1.55;;;24.50;63.30;;;;;;5026341;28;20030;-64
2023/06/26 02:44:12;;;;;;;1.77;1.30;;;24.40;63.20;;;;;;5029399;28;20061;-64
2023/06/26 02:46:38;;;;;;;2.28;1.40;;;24.40;63.20;;;;;;5030283;28;20033;-65
2023/06/26 02:49:04;;;;;;;2.65;1.30;;;24.40;63.40;;;;;;5029663;28;20075;-64
2023/06/26 02:51:31;;;;;;;3.72;1.27;;;24.40;63.40;;;;;;5029805;28;20443;-63
2023/06/26 02:53:57;;;;;;;1.92;1.30;;;24.30;63.40;;;;;;5028767;28;20400;-64
2023/06/26 02:56:23;;;;;;;2.38;1.67;;;24.20;63.50;;;;;;5029658;28;20112;-64
2023/06/26 02:58:48;;;;;;;3.33;1.50;;;24.20;63.60;;;;;;5028758;28;20523;-65
2023/06/26 03:01:14;;;;;;;3.15;1.20;;;24.20;63.60;;;;;;5029900;28;20057;-64
2023/06/26 03:03:41;;;;;;;1.52;1.20;;;24.20;63.70;;;;;;5028481;28;20026;-63
2023/06/26 03:06:07;;;;;;;1.48;1.38;;;24.10;63.80;;;;;;5029754;28;20036;-64
2023/06/26 03:08:38;;;;;;;1.30;1.20;;;24.10;63.90;;;;;;5011671;28;20041;-63
2023/06/26 03:11:05;;;;;;;7.03;2.03;;;24.10;63.90;;;;;;5029585;28;20068;-64
2023/06/26 03:13:30;;;;;;;2.35;1.30;;;24.10;64.00;;;;;;5029223;28;20346;-63
2023/06/26 03:15:56;;;;;;;4.03;1.40;;;24.00;64.10;;;;;;5012051;28;20022;-64
2023/06/26 03:18:21;;;;;;;1.63;1.42;;;24.00;64.30;;;;;;5028945;28;20033;-63
2023/06/26 03:20:48;;;;;;;2.00;1.30;;;23.90;64.60;;;;;;5029580;28;20114;-64
2023/06/26 03:23:13;;;;;;;1.38;1.10;;;23.90;64.80;;;;;;5028386;28;20033;-64
2023/06/26 03:25:39;;;;;;;2.45;1.70;;;23.90;64.80;;;;;;5029744;28;20049;-63
2023/06/26 03:28:05;;;;;;;3.50;1.95;;;23.80;65.00;;;;;;5029334;28;20102;-64
2023/06/26 03:30:30;;;;;;;3.45;1.60;;;23.80;65.30;;;;;;4991908;28;20030;-64
2023/06/26 03:32:56;;;;;;;1.58;1.35;;;23.70;65.40;;;;;;5010557;28;20085;-63
2023/06/26 03:35:22;;;;;;;2.13;1.17;;;23.70;65.60;;;;;;5011262;28;20091;-64
2023/06/26 03:37:49;;;;;;;2.05;1.10;;;23.60;65.60;;;;;;5029136;28;20761;-64
2023/06/26 03:40:14;;;;;;;1.65;1.02;;;23.60;65.80;;;;;;5029164;28;20462;-64
2023/06/26 03:42:40;;;;;;;1.20;0.90;;;23.60;66.20;;;;;;5023452;28;20034;-64
2023/06/26 03:45:06;;;;;;;1.58;1.45;;;23.50;66.30;;;;;;5029108;28;20090;-65
2023/06/26 03:47:32;;;;;;;3.95;1.45;;;23.50;66.40;;;;;;5029244;28;20037;-64
2023/06/26 03:49:58;;;;;;;1.70;1.60;;;23.50;66.30;;;;;;5031939;28;20397;-63
2023/06/26 03:52:23;;;;;;;2.40;1.50;;;23.50;66.40;;;;;;5032232;28;20516;-63
2023/06/26 03:54:49;;;;;;;2.70;1.30;;;23.50;66.80;;;;;;5032786;28;20523;-63
2023/06/26 03:57:15;;;;;;;1.92;1.33;;;23.40;67.00;;;;;;5030864;28;20037;-64
2023/06/26 03:59:40;;;;;;;2.78;1.17;;;23.40;67.10;;;;;;5002432;28;20047;-63
2023/06/26 04:02:06;;;;;;;3.42;1.02;;;23.40;67.00;;;;;;4995061;28;20041;-64
2023/06/26 04:04:32;;;;;;;1.98;1.38;;;23.40;67.00;;;;;;4994716;28;20042;-64
2023/06/26 04:06:59;;;;;;;8.25;2.13;;;23.40;67.20;;;;;;4997356;28;20990;-64
2023/06/26 04:09:25;;;;;;;3.50;1.55;;;23.40;67.50;;;;;;4995216;28;20041;-64
2023/06/26 04:11:51;;;;;;;2.40;1.20;;;23.30;67.70;;;;;;4994751;28;20470;-64
2023/06/26 04:14:17;;;;;;;2.58;1.67;;;23.30;67.90;;;;;;4992732;28;20042;-64
2023/06/26 04:16:42;;;;;;;2.95;1.83;;;23.20;68.00;;;;;;4995159;28;20038;-64
2023/06/26 04:19:09;;;;;;;2.55;1.50;;;23.20;68.10;;;;;;4991676;28;20512;-64
2023/06/26 04:21:51;;;;;;;3.83;1.38;;;23.20;68.20;;;;;;4988651;28;20072;-64
2023/06/26 04:24:18;;;;;;;3.38;1.52;;;23.20;68.70;;;;;;4989765;28;20042;-66
2023/06/26 04:26:45;;;;;;;6.18;2.55;;;23.10;68.60;;;;;;4993313;28;20018;-66
2023/06/26 04:29:11;;;;;;;3.20;1.30;;;23.10;68.90;;;;;;5002235;28;20073;-66
2023/06/26 04:31:36;;;;;;;6.20;2.00;;;23.20;68.90;;;;;;4998834;28;20682;-66
2023/06/26 04:34:02;;;;;;;1.98;1.10;;;23.20;69.00;;;;;;4997005;28;20722;-66
2023/06/26 04:36:28;;;;;;;3.05;1.42;;;23.20;69.00;;;;;;4996555;28;20034;-66
2023/06/26 04:38:55;;;;;;;3.10;1.50;;;23.10;69.10;;;;;;4989034;28;20118;-65
2023/06/26 04:41:21;;;;;;;3.72;2.00;;;23.10;69.20;;;;;;4991000;28;20503;-66
2023/06/26 04:43:47;;;;;;;6.25;1.65;;;23.10;69.30;;;;;;4998442;28;20097;-64
2023/06/26 04:46:12;;;;;;;4.50;2.08;;;23.10;69.30;;;;;;4999289;28;20042;-64
2023/06/26 04:48:38;;;;;;;3.08;1.63;;;23.10;69.60;;;;;;4989075;28;20121;-65
2023/06/26 04:51:04;;;;;;;4.40;1.45;;;23.10;69.70;;;;;;4992095;28;20109;-65
2023/06/26 04:53:29;;;;;;;3.42;1.52;;;23.00;69.80;;;;;;4998404;28;20108;-66
2023/06/26 04:55:55;;;;;;;2.85;1.83;;;23.00;69.90;;;;;;4990898;28;20031;-66
2023/06/26 04:58:21;;;;;;;3.00;1.88;;;23.10;69.80;;;;;;4997248;28;20030;-65
2023/06/26 05:00:47;;;;;;;5.03;1.83;;;23.10;69.70;;;;;;5026905;28;20373;-65
2023/06/26 05:03:14;;;;;;;3.00;1.40;;;23.10;69.70;;;;;;5030705;28;20109;-64
2023/06/26 05:05:39;;;;;;;4.43;2.28;;;23.00;69.80;;;;;;5031253;28;20542;-64
2023/06/26 05:08:20;;;;;;;6.32;1.60;;;23.00;69.90;;;;;;5031570;28;20128;-65
2023/06/26 05:10:46;;;;;;;2.13;1.20;;;23.10;69.90;;;;;;5029080;28;20033;-65
2023/06/26 05:13:15;;;;;;;2.90;1.63;;;23.00;70.00;;;;;;5013310;28;20033;-66
2023/06/26 05:15:42;;;;;;;5.32;1.60;;;23.00;70.00;;;;;;5030056;28;20124;-66
2023/06/26 05:18:08;;;;;;;2.20;1.42;;;23.00;70.00;;;;;;5030847;28;20064;-66
2023/06/26 05:20:37;;;;;;;6.20;1.48;;;23.10;70.10;;;;;;5031998;28;20056;-66
2023/06/26 05:23:03;;;;;;;2.13;1.23;;;23.20;69.90;;;;;;5026707;28;20428;-66
2023/06/26 05:25:30;;;;;;;2.13;1.52;;;23.20;69.70;;;;;;5013595;28;20026;-66
2023/06/26 05:28:00;;;;;;;3.13;1.70;;;23.30;69.40;;;;;;5030948;28;20057;-64
2023/06/26 05:30:26;;;;;;;3.35;1.50;;;23.30;69.20;;;;;;5031371;28;20477;-64
2023/06/26 05:32:53;;;;;;;5.57;2.08;;;23.30;69.20;;;;;;5030399;28;20029;-64
2023/06/26 05:35:21;;;;;;;3.13;1.50;;;23.40;69.30;;;;;;5031906;28;20082;-64
2023/06/26 05:37:50;;;;;;;3.92;1.73;;;23.40;69.00;;;;;;5028966;28;20354;-65
2023/06/26 05:40:16;;;;;;;3.45;1.27;;;23.50;68.70;;;;;;5028606;28;20017;-65
2023/06/26 05:42:42;;;;;;;2.63;1.38;;;23.40;68.70;;;;;;5030173;28;20033;-66
2023/06/26 05:45:09;;;;;;;1.92;1.50;;;23.40;68.70;;;;;;5030975;28;20025;-66
2023/06/26 05:47:34;;;;;;;1.52;1.23;;;23.40;68.70;;;;;;5030705;28;20037;-65
2023/06/26 05:50:00;;;;;;;2.13;1.27;;;23.40;68.60;;;;;;5031224;28;20030;-65
2023/06/26 05:52:26;;;;;;;1.70;1.33;;;23.40;68.50;;;;;;5030768;28;20044;-65
2023/06/26 05:54:52;;;;;;;2.63;1.25;;;23.50;68.30;;;;;;5013017;28;20025;-65
2023/06/26 05:57:19;;;;;;;10.80;1.88;;;23.60;68.00;;;;;;5030558;28;20152;-65
2023/06/26 05:59:46;;;;;;;4.57;1.27;;;23.70;67.70;;;;;;5013134;28;20033;-64
2023/06/26 06:02:12;;;;;;;3.17;1.73;;;23.70;67.50;;;;;;5011991;28;20065;-65
2023/06/26 06:04:38;;;;;;;6.57;1.92;;;23.70;67.30;;;;;;5030342;28;20087;-65
2023/06/26 06:07:04;;;;;;;3.92;1.40;;;23.80;66.50;;;;;;5012999;28;20041;-64
2023/06/26 06:09:30;;;;;;;3.72;1.23;;;23.70;65.90;;;;;;4995457;28;20479;-64
2023/06/26 06:11:56;;;;;;;2.70;1.23;;;23.60;66.00;;;;;;5028898;28;20060;-64
2023/06/26 06:14:21;;;;;;;3.80;1.83;;;23.60;65.90;;;;;;5012289;28;20501;-64
2023/06/26 06:16:47;;;;;;;1.55;1.17;;;23.80;65.70;;;;;;5029990;28;20022;-65
2023/06/26 06:19:13;;;;;;;2.47;1.10;;;23.90;65.20;;;;;;5012946;28;20036;-64
2023/06/26 06:21:39;;;;;;;1.13;0.98;;;23.90;64.90;;;;;;5030150;28;20021;-64
2023/06/26 06:24:06;;;;;;;1.55;0.90;;;24.00;64.10;;;;;;5030021;28;20053;-64
2023/06/26 06:26:33;;;;;;;2.92;1.10;;;24.00;64.10;;;;;;5026007;28;20060;-64
2023/06/26 06:28:58;;;;;;;1.20;1.10;;;24.00;63.60;;;;;;5026862;28;20036;-65
2023/06/26 06:31:24;;;;;;;3.70;1.00;;;23.90;63.50;;;;;;5014743;28;20029;-65
2023/06/26 06:33:50;;;;;;;3.03;1.27;;;24.00;63.20;;;;;;5011729;28;20029;-65
2023/06/26 06:36:15;;;;;;;1.80;1.00;;;24.00;62.70;;;;;;5029166;28;20029;-65
2023/06/26 06:38:44;;;;;;;1.13;0.82;;;24.00;62.70;;;;;;5012053;28;20053;-65
2023/06/26 06:41:10;;;;;;;1.95;0.90;;;24.00;62.30;;;;;;5030047;28;20030;-65
2023/06/26 06:43:36;;;;;;;1.05;0.98;;;24.10;62.50;;;;;;5029403;28;20099;-65
2023/06/26 06:46:02;;;;;;;1.23;0.75;;;24.20;62.30;;;;;;5029877;28;20029;-65
2023/06/26 06:48:27;;;;;;;6.25;1.40;;;24.30;62.00;;;;;;5028071;28;20043;-65
2023/06/26 06:50:53;;;;;;;1.83;0.90;;;24.40;61.60;;;;;;4993783;28;20033;-65
2023/06/26 06:53:22;;;;;;;4.72;1.67;;;24.40;60.40;;;;;;5028461;28;20080;-65
2023/06/26 06:55:48;;;;;;;2.35;1.25;;;24.40;60.50;;;;;;5026984;28;20021;-65
2023/06/26 06:58:16;;;;;;;2.10;0.95;;;24.40;60.50;;;;;;5028817;28;20064;-65
2023/06/26 07:00:42;;;;;;;1.17;0.80;;;24.40;60.40;;;;;;5029622;28;20045;-64
2023/06/26 07:03:08;;;;;;;1.00;0.82;;;24.50;60.30;;;;;;5029227;28;20817;-65
2023/06/26 07:05:33;;;;;;;2.00;1.30;;;24.50;60.30;;;;;;5029546;28;20116;-65
2023/06/26 07:07:59;;;;;;;1.00;0.77;;;24.60;60.30;;;;;;5029546;28;20037;-65
2023/06/26 07:10:25;;;;;;;1.40;1.00;;;24.60;60.10;;;;;;5029404;28;20029;-65
2023/06/26 07:12:50;;;;;;;3.55;1.40;;;24.60;59.90;;;;;;5027125;28;20107;-64
2023/06/26 07:15:16;;;;;;;2.85;1.65;;;24.60;60.30;;;;;;5029619;28;20025;-65
2023/06/26 07:17:42;;;;;;;0.77;0.70;;;24.70;60.20;;;;;;5029037;28;20025;-65
2023/06/26 07:20:09;;;;;;;1.83;0.93;;;24.70;60.00;;;;;;5029502;28;20041;-65
2023/06/26 07:22:36;;;;;;;1.45;0.80;;;24.70;59.80;;;;;;5030468;28;20100;-64
2023/06/26 07:25:03;;;;;;;2.15;0.80;;;24.80;60.00;;;;;;5030644;28;20037;-62
2023/06/26 07:27:29;;;;;;;0.80;0.80;;;24.90;59.70;;;;;;5015307;28;20029;-63
2023/06/26 07:29:55;;;;;;;1.40;0.80;;;25.10;59.60;;;;;;5033103;28;20512;-63
2023/06/26 07:32:20;;;;;;;4.07;1.13;;;25.10;59.00;;;;;;5014516;28;20029;-63
2023/06/26 07:34:46;;;;;;;1.25;1.15;;;25.00;58.90;;;;;;5033432;28;20022;-63
2023/06/26 07:37:12;;;;;;;1.30;0.70;;;25.00;59.00;;;;;;5032947;28;20029;-64
2023/06/26 07:39:37;;;;;;;0.82;0.70;;;25.00;58.70;;;;;;5033275;28;20028;-64
2023/06/26 07:42:03;;;;;;;0.93;0.85;;;25.00;59.00;;;;;;5032760;28;20061;-64
2023/06/26 07:44:29;;;;;;;1.80;1.20;;;24.90;58.90;;;;;;5032818;28;20079;-64
2023/06/26 07:46:55;;;;;;;1.48;1.20;;;24.90;59.20;;;;;;5032628;28;20030;-64
2023/06/26 07:49:20;;;;;;;1.20;1.10;;;24.90;59.40;;;;;;5032971;28;20083;-65
2023/06/26 07:51:46;;;;;;;1.75;1.00;;;24.90;59.30;;;;;;5013273;28;20034;-65
2023/06/26 07:54:11;;;;;;;2.25;1.60;;;25.00;59.30;;;;;;5030630;28;20121;-65
2023/06/26 07:57:06;;;;;;;0.73;0.73;;;24.90;59.20;;;;;;5033183;28;20034;-65
2023/06/26 07:59:32;;;;;;;0.80;0.80;;;25.00;59.40;;;;;;5028307;28;20045;-66
2023/06/26 08:01:58;;;;;;;1.08;0.98;;;25.00;59.40;;;;;;5032054;28;20516;-66
2023/06/26 08:04:26;;;;;;;0.88;0.75;;;25.20;59.20;;;;;;5032799;28;20452;-65
2023/06/26 08:06:54;;;;;;;2.08;1.00;;;25.40;58.70;;;;;;5032857;28;20025;-65
2023/06/26 08:09:22;;;;;;;0.70;0.70;;;25.50;58.20;;;;;;5032815;28;20072;-65
2023/06/26 08:11:48;;;;;;;0.70;0.70;;;25.40;58.40;;;;;;5032279;28;20033;-66
2023/06/26 08:14:14;;;;;;;1.85;1.23;;;25.30;58.70;;;;;;5032209;28;20047;-64
2023/06/26 08:16:41;;;;;;;0.98;0.80;;;25.10;58.70;;;;;;5032423;28;20526;-64
2023/06/26 08:19:07;;;;;;;1.40;1.17;;;25.00;59.00;;;;;;5031099;28;20017;-64
2023/06/26 08:21:34;;;;;;;1.20;1.10;;;25.00;59.00;;;;;;5032367;28;20553;-64
2023/06/26 08:24:00;;;;;;;1.00;0.82;;;25.10;59.10;;;;;;5029159;28;20029;-64
2023/06/26 08:26:25;;;;;;;1.40;1.00;;;25.20;58.40;;;;;;5032599;28;20033;-64
2023/06/26 08:28:51;;;;;;;1.20;0.90;;;25.20;58.50;;;;;;5032077;28;20427;-64
2023/06/26 08:31:17;;;;;;;1.33;0.80;;;25.20;58.60;;;;;;5032056;28;20030;-64
2023/06/26 08:33:43;;;;;;;1.40;0.90;;;25.40;58.50;;;;;;5019754;28;20033;-64
2023/06/26 08:36:08;;;;;;;0.80;0.80;;;25.60;58.10;;;;;;5031795;28;20360;-64
2023/06/26 08:38:34;;;;;;;1.75;1.13;;;25.80;57.60;;;;;;5032241;28;20143;-64
2023/06/26 08:41:00;;;;;;;0.73;0.73;;;25.70;57.40;;;;;;5032301;28;20443;-64
2023/06/26 08:43:26;;;;;;;1.55;1.10;;;25.60;57.20;;;;;;5013840;28;20120;-64
2023/06/26 08:45:53;;;;;;;1.88;1.35;;;25.50;57.50;;;;;;5013735;28;20033;-64
2023/06/26 08:48:20;;;;;;;2.80;1.45;;;25.30;57.80;;;;;;5031645;28;20121;-64
2023/06/26 08:50:48;;;;;;;4.15;0.95;;;25.20;58.10;;;;;;5028196;28;20052;-65
2023/06/26 08:53:19;;;;;;;1.05;0.88;;;25.20;58.20;;;;;;5031348;28;20064;-65
2023/06/26 08:55:47;;;;;;;0.70;0.70;;;25.40;57.90;;;;;;5029994;28;20041;-64
2023/06/26 08:58:13;;;;;;;1.00;0.90;;;25.50;57.30;;;;;;5014440;28;20025;-65
2023/06/26 09:00:39;;;;;;;3.95;1.35;;;25.80;57.10;;;;;;5013731;28;20072;-65
2023/06/26 09:03:06;;;;;;;0.98;0.90;;;25.80;55.80;;;;;;5025737;28;20053;-66
2023/06/26 09:05:31;;;;;;;1.20;0.77;;;25.70;55.90;;;;;;5031037;28;20116;-65
2023/06/26 09:07:58;;;;;;;1.85;0.85;;;25.50;55.70;;;;;;5031838;28;20120;-66
2023/06/26 09:10:24;;;;;;;1.30;1.02;;;25.20;56.10;;;;;;5031405;28;20051;-66
2023/06/26 09:12:50;;;;;;;1.38;0.90;;;25.10;56.80;;;;;;5031124;28;20025;-66
2023/06/26 09:15:19;;;;;;;3.38;1.17;;;25.40;56.60;;;;;;5031473;28;20029;-67
2023/06/26 09:17:47;;;;;;;1.17;1.00;;;25.60;56.10;;;;;;5033384;28;20096;-67
2023/06/26 09:20:14;;;;;;;2.50;1.42;;;25.80;55.70;;;;;;5031963;28;20080;-66
2023/06/26 09:22:42;;;;;;;0.63;0.60;;;25.80;54.50;;;;;;5032608;28;20037;-66
2023/06/26 09:25:08;;;;;;;2.08;0.82;;;25.80;54.70;;;;;;5032536;28;20480;-67
2023/06/26 09:27:35;;;;;;;2.78;0.80;;;25.80;54.50;;;;;;5032715;28;20037;-66
2023/06/26 09:30:06;;;;;;;0.77;0.60;;;25.80;54.20;;;;;;5032719;28;20032;-67
2023/06/26 09:32:37;;;;;;;2.17;0.50;;;25.90;54.40;;;;;;5032760;28;20026;-66
2023/06/26 09:35:03;;;;;;;0.82;0.63;;;26.00;54.40;;;;;;5032468;28;20025;-66
2023/06/26 09:37:29;;;;;;;1.15;0.85;;;26.10;52.20;;;;;;5014851;28;20060;-66
2023/06/26 09:39:55;;;;;;;0.70;0.70;;;26.10;51.60;;;;;;5032403;28;20049;-67
2023/06/26 09:42:23;;;;;;;1.17;0.50;;;26.10;51.60;;;;;;5030651;28;20069;-63
2023/06/26 09:44:50;;;;;;;1.77;0.60;;;26.10;51.30;;;;;;5030573;28;20030;-63
2023/06/26 09:47:18;;;;;;;1.30;1.08;;;26.10;51.70;;;;;;5026775;28;20041;-63
2023/06/26 09:49:44;;;;;;;2.03;0.80;;;26.10;51.00;;;;;;5030410;28;20076;-62
2023/06/26 09:52:13;;;;;;;0.50;0.50;;;26.20;49.40;;;;;;5029960;28;20044;-62
2023/06/26 09:54:39;;;;;;;0.52;0.52;;;26.20;48.20;;;;;;5029405;28;20408;-62
2023/06/26 09:57:12;;;;;;;0.50;0.50;;;26.30;47.90;;;;;;5029908;28;20025;-62
2023/06/26 09:59:38;;;;;;;0.90;0.60;;;26.30;47.50;;;;;;5030314;28;20518;-62
2023/06/26 10:02:04;;;;;;;0.60;0.60;;;26.20;47.40;;;;;;5029666;28;20136;-62
2023/06/26 10:04:30;;;;;;;4.20;0.40;;;26.20;48.40;;;;;;5008774;28;20096;-61
2023/06/26 10:06:57;;;;;;;0.55;0.55;;;26.40;48.50;;;;;;5030379;28;20050;-65
2023/06/26 10:09:24;;;;;;;1.50;0.43;;;26.60;48.80;;;;;;5014198;28;20512;-67
2023/06/26 10:11:55;;;;;;;1.17;0.65;;;26.80;48.30;;;;;;5013862;28;20017;-65
2023/06/26 10:14:23;;;;;;;0.65;0.60;;;26.50;46.90;;;;;;5030841;28;20037;-62
2023/06/26 10:16:50;;;;;;;1.75;0.70;;;26.10;47.60;;;;;;5030375;28;20726;-67
2023/06/26 10:19:23;;;;;;;0.73;0.57;;;25.70;48.50;;;;;;5012622;28;20030;-67
2023/06/26 10:21:54;;;;;;;0.63;0.50;;;25.40;49.20;;;;;;5010125;28;20025;-65
2023/06/26 10:24:22;;;;;;;0.60;0.60;;;25.30;50.00;;;;;;5028888;28;20018;-65
2023/06/26 10:26:51;;;;;;;1.17;0.60;;;25.40;50.20;;;;;;5013751;28;20103;-66
2023/06/26 10:29:20;;;;;;;0.45;0.45;;;25.70;49.70;;;;;;5011239;28;20453;-65
2023/06/26 10:31:55;;;;;;;0.63;0.60;;;25.80;49.30;;;;;;5027579;28;20385;-65
2023/06/26 10:34:21;;;;;;;0.50;0.50;;;25.90;46.90;;;;;;5029314;28;20100;-66
2023/06/26 10:36:48;;;;;;;1.08;0.65;;;26.00;46.60;;;;;;5029239;28;20393;-66
2023/06/26 10:39:13;;;;;;;0.50;0.50;;;26.20;47.00;;;;;;5030651;28;20024;-65
2023/06/26 10:41:43;;;;;;;0.50;0.50;;;26.50;47.00;;;;;;5029459;28;20029;-65
2023/06/26 10:44:16;;;;;;;1.90;0.50;;;26.80;47.10;;;;;;5030032;28;20445;-66
2023/06/26 10:46:53;;;;;;;0.60;0.60;;;26.90;45.90;;;;;;5012413;28;20058;-67
2023/06/26 10:49:26;;;;;;;1.90;0.50;;;27.10;45.80;;;;;;5029784;28;20025;-66
2023/06/26 10:51:53;;;;;;;0.95;0.85;;;27.20;44.80;;;;;;5011814;28;20492;-66
2023/06/26 10:54:20;;;;;;;0.38;0.38;;;27.40;45.10;;;;;;5012758;28;20033;-66
2023/06/26 10:56:48;;;;;;;0.50;0.50;;;27.30;44.30;;;;;;5027922;28;20543;-66
2023/06/26 10:59:22;;;;;;;0.73;0.50;;;27.00;44.30;;;;;;5014399;28;20046;-66
2023/06/26 11:01:57;;;;;;;0.45;0.40;;;27.00;45.10;;;;;;5011529;28;20025;-63
2023/06/26 11:04:45;;;;;;;0.40;0.40;;;27.20;44.80;;;;;;5028183;28;20028;-63
2023/06/26 11:07:25;;;;;;;0.55;0.50;;;27.50;44.50;;;;;;5009689;28;20037;-63
2023/06/26 11:10:00;;;;;;;4.88;0.40;;;27.50;43.30;;;;;;4990305;28;20034;-63
2023/06/26 11:12:37;;;;;;;0.70;0.70;;;27.30;43.50;;;;;;5027956;28;20168;-63
2023/06/26 11:15:14;;;;;;;0.50;0.50;;;27.20;43.00;;;;;;5028144;28;20033;-63
2023/06/26 11:17:40;;;;;;;0.65;0.57;;;27.10;43.50;;;;;;5003550;28;20030;-63
2023/06/26 11:20:08;;;;;;;0.68;0.57;;;27.20;44.30;;;;;;5007602;28;20477;-63
2023/06/26 11:22:39;;;;;;;0.40;0.40;;;27.40;44.30;;;;;;5022796;28;20076;-62
2023/06/26 11:25:06;;;;;;;0.60;0.60;;;27.40;43.20;;;;;;5027713;28;20112;-62
2023/06/26 11:27:37;;;;;;;0.95;0.63;;;27.30;43.90;;;;;;5024759;28;20029;-63
2023/06/26 11:30:04;;;;;;;0.90;0.88;;;27.00;43.80;;;;;;5028209;28;20515;-63
2023/06/26 11:32:29;;;;;;;0.60;0.60;;;26.80;44.60;;;;;;5026120;28;20075;-63
2023/06/26 11:34:55;;;;;;;0.50;0.50;;;26.80;44.50;;;;;;5009966;28;20507;-63
2023/06/26 11:37:22;;;;;;;0.60;0.60;;;26.70;43.70;;;;;;5025703;28;20037;-63
2023/06/26 11:39:48;;;;;;;0.47;0.47;;;26.70;43.80;;;;;;5021079;28;20366;-63
2023/06/26 11:42:14;;;;;;;0.40;0.40;;;26.70;43.70;;;;;;5021423;28;20032;-63
2023/06/26 11:44:43;;;;;;;0.50;0.50;;;26.80;43.40;;;;;;5024610;28;20029;-63
2023/06/26 11:47:16;;;;;;;0.82;0.82;;;26.80;43.30;;;;;;5023191;28;20129;-66
2023/06/26 11:49:46;;;;;;;0.35;0.35;;;26.90;43.30;;;;;;5010119;28;20112;-66
2023/06/26 11:52:13;;;;;;;0.45;0.45;;;27.00;43.60;;;;;;5029329;28;20495;-66
2023/06/26 11:54:40;;;;;;;0.50;0.50;;;27.10;43.70;;;;;;5029010;28;20392;-66
2023/06/26 11:57:05;;;;;;;2.33;0.70;;;27.10;44.00;;;;;;5012435;28;20021;-67
2023/06/26 11:59:36;;;;;;;1.65;0.40;;;27.30;44.50;;;;;;5028911;28;20408;-66
2023/06/26 12:02:14;;;;;;;0.93;0.80;;;27.40;44.00;;;;;;5029180;28;20331;-66
2023/06/26 12:04:44;;;;;;;1.95;0.50;;;27.30;43.50;;;;;;5026498;28;20488;-66
2023/06/26 12:07:10;;;;;;;0.35;0.35;;;27.20;43.40;;;;;;5024153;28;20061;-66
2023/06/26 12:09:45;;;;;;;0.60;0.45;;;27.30;43.70;;;;;;5030724;28;20026;-66
2023/06/26 12:12:13;;;;;;;0.43;0.40;;;27.50;42.80;;;;;;5031826;28;20030;-66
2023/06/26 12:14:40;;;;;;;0.65;0.30;;;27.60;42.30;;;;;;5028262;28;20022;-66
2023/06/26 12:17:15;;;;;;;1.50;0.50;;;27.50;42.50;;;;;;5032970;28;20068;-66
2023/06/26 12:19:47;;;;;;;0.55;0.50;;;27.40;42.90;;;;;;5015603;28;20431;-66
2023/06/26 12:22:13;;;;;;;0.75;0.52;;;27.20;42.80;;;;;;5031549;28;20045;-67
2023/06/26 12:24:39;;;;;;;0.65;0.57;;;26.90;43.00;;;;;;5033530;28;20038;-66
2023/06/26 12:27:16;;;;;;;1.10;0.60;;;26.70;42.80;;;;;;5033350;28;20032;-67
2023/06/26 12:29:51;;;;;;;4.18;0.80;;;26.60;43.70;;;;;;5033289;28;20515;-67
2023/06/26 12:32:17;;;;;;;0.40;0.40;;;26.60;44.00;;;;;;5029958;28;20443;-67
2023/06/26 12:34:48;;;;;;;0.60;0.60;;;26.60;42.90;;;;;;5013870;28;20025;-66
2023/06/26 12:37:14;;;;;;;0.73;0.50;;;26.80;42.70;;;;;;5032427;28;20483;-66
2023/06/26 12:39:51;;;;;;;0.43;0.43;;;27.00;41.90;;;;;;5015321;28;20022;-67
2023/06/26 12:42:25;;;;;;;1.05;0.47;;;27.40;42.40;;;;;;5031661;28;20527;-67
2023/06/26 12:44:52;;;;;;;0.50;0.50;;;27.60;41.80;;;;;;4995130;28;20022;-63
2023/06/26 12:47:23;;;;;;;1.60;0.40;;;27.60;41.30;;;;;;5028638;28;20030;-67
2023/06/26 12:49:51;;;;;;;0.50;0.50;;;27.40;41.40;;;;;;5009776;28;20389;-66
2023/06/26 12:52:21;;;;;;;1.38;0.60;;;27.40;41.60;;;;;;5031523;28;20060;-67